sensor_id;sensor_type;location;lat;lon;timestamp;P1;durP1;ratioP1;P2;durP2;ratioP2
29370;SDS011;16357;52.188;7.838;2022-08-19T00:01:34;5.10;;;4.40;;
29370;SDS011;16357;52.188;7.838;2022-08-19T00:04:04;6.47;;;4.18;;
29370;SDS011;16357;52.188;7.838;2022-08-19T00:06:33;4.82;;;3.80;;
29370;SDS011;16357;52.188;7.838;2022-08-19T00:09:03;5.45;;;4.35;;
29370;SDS011;16357;52.188;7.838;2022-08-19T00:11:31;5.93;;;3.97;;
29370;SDS011;16357;52.188;7.838;2022-08-19T00:14:00;6.15;;;4.28;;
29370;SDS011;16357;52.188;7.838;2022-08-19T00:16:27;6.05;;;4.68;;
29370;SDS011;16357;52.188;7.838;2022-08-19T00:18:54;8.18;;;4.78;;
29370;SDS011;16357;52.188;7.838;2022-08-19T00:21:22;6.30;;;4.60;;
29370;SDS011;16357;52.188;7.838;2022-08-19T00:23:50;4.90;;;3.83;;
29370;SDS011;16357;52.188;7.838;2022-08-19T00:26:16;9.20;;;5.13;;
29370;SDS011;16357;52.188;7.838;2022-08-19T00:28:43;7.95;;;5.00;;
29370;SDS011;16357;52.188;7.838;2022-08-19T00:31:09;8.27;;;5.10;;
29370;SDS011;16357;52.188;7.838;2022-08-19T00:33:36;7.57;;;5.65;;
29370;SDS011;16357;52.188;7.838;2022-08-19T00:36:03;7.75;;;5.15;;
29370;SDS011;16357;52.188;7.838;2022-08-19T00:38:33;7.22;;;5.38;;
29370;SDS011;16357;52.188;7.838;2022-08-19T00:41:04;8.07;;;5.65;;
29370;SDS011;16357;52.188;7.838;2022-08-19T00:43:31;6.85;;;5.65;;
29370;SDS011;16357;52.188;7.838;2022-08-19T00:45:57;5.90;;;4.95;;
29370;SDS011;16357;52.188;7.838;2022-08-19T00:48:24;7.47;;;5.50;;
29370;SDS011;16357;52.188;7.838;2022-08-19T00:50:51;8.38;;;5.72;;
29370;SDS011;16357;52.188;7.838;2022-08-19T00:53:20;7.00;;;5.40;;
29370;SDS011;16357;52.188;7.838;2022-08-19T00:55:49;7.15;;;5.32;;
29370;SDS011;16357;52.188;7.838;2022-08-19T00:58:19;7.32;;;5.78;;
29370;SDS011;16357;52.188;7.838;2022-08-19T01:00:48;9.32;;;5.63;;
29370;SDS011;16357;52.188;7.838;2022-08-19T01:03:16;7.20;;;5.60;;
29370;SDS011;16357;52.188;7.838;2022-08-19T01:05:44;6.10;;;5.03;;
29370;SDS011;16357;52.188;7.838;2022-08-19T01:08:13;6.45;;;5.63;;
29370;SDS011;16357;52.188;7.838;2022-08-19T01:10:43;7.40;;;5.43;;
29370;SDS011;16357;52.188;7.838;2022-08-19T01:13:17;8.43;;;6.00;;
29370;SDS011;16357;52.188;7.838;2022-08-19T01:15:46;6.63;;;5.13;;
29370;SDS011;16357;52.188;7.838;2022-08-19T01:18:17;8.43;;;5.55;;
29370;SDS011;16357;52.188;7.838;2022-08-19T01:20:45;6.45;;;5.57;;
29370;SDS011;16357;52.188;7.838;2022-08-19T01:23:13;6.50;;;5.65;;
29370;SDS011;16357;52.188;7.838;2022-08-19T01:25:46;7.25;;;5.55;;
29370;SDS011;16357;52.188;7.838;2022-08-19T01:28:17;7.32;;;5.82;;
29370;SDS011;16357;52.188;7.838;2022-08-19T01:30:59;7.10;;;5.50;;
29370;SDS011;16357;52.188;7.838;2022-08-19T01:33:33;7.40;;;5.75;;
29370;SDS011;16357;52.188;7.838;2022-08-19T01:36:06;8.13;;;5.50;;
29370;SDS011;16357;52.188;7.838;2022-08-19T01:38:35;6.70;;;5.53;;
29370;SDS011;16357;52.188;7.838;2022-08-19T01:41:10;11.00;;;6.25;;
29370;SDS011;16357;52.188;7.838;2022-08-19T01:43:37;6.97;;;5.43;;
29370;SDS011;16357;52.188;7.838;2022-08-19T01:46:24;10.38;;;6.28;;
29370;SDS011;16357;52.188;7.838;2022-08-19T01:48:50;8.35;;;6.53;;
29370;SDS011;16357;52.188;7.838;2022-08-19T01:51:17;7.88;;;6.18;;
29370;SDS011;16357;52.188;7.838;2022-08-19T01:53:46;8.43;;;6.32;;
29370;SDS011;16357;52.188;7.838;2022-08-19T01:56:14;9.73;;;5.65;;
29370;SDS011;16357;52.188;7.838;2022-08-19T01:58:41;8.82;;;5.70;;
29370;SDS011;16357;52.188;7.838;2022-08-19T02:01:13;9.20;;;6.68;;
29370;SDS011;16357;52.188;7.838;2022-08-19T02:03:40;7.75;;;6.35;;
29370;SDS011;16357;52.188;7.838;2022-08-19T02:06:06;7.38;;;5.82;;
29370;SDS011;16357;52.188;7.838;2022-08-19T02:08:35;10.02;;;6.32;;
29370;SDS011;16357;52.188;7.838;2022-08-19T02:11:04;17.17;;;6.32;;
29370;SDS011;16357;52.188;7.838;2022-08-19T02:13:32;8.30;;;6.15;;
29370;SDS011;16357;52.188;7.838;2022-08-19T02:15:59;8.93;;;6.53;;
29370;SDS011;16357;52.188;7.838;2022-08-19T02:18:29;8.95;;;6.70;;
29370;SDS011;16357;52.188;7.838;2022-08-19T02:20:55;10.20;;;6.47;;
29370;SDS011;16357;52.188;7.838;2022-08-19T02:23:22;7.88;;;6.53;;
29370;SDS011;16357;52.188;7.838;2022-08-19T02:25:49;9.23;;;6.93;;
29370;SDS011;16357;52.188;7.838;2022-08-19T02:28:17;8.77;;;6.88;;
29370;SDS011;16357;52.188;7.838;2022-08-19T02:30:45;10.90;;;7.90;;
29370;SDS011;16357;52.188;7.838;2022-08-19T02:33:12;7.60;;;6.20;;
29370;SDS011;16357;52.188;7.838;2022-08-19T02:35:45;8.63;;;6.38;;
29370;SDS011;16357;52.188;7.838;2022-08-19T02:38:13;7.60;;;6.10;;
29370;SDS011;16357;52.188;7.838;2022-08-19T02:40:54;8.90;;;6.07;;
29370;SDS011;16357;52.188;7.838;2022-08-19T02:43:22;8.82;;;6.80;;
29370;SDS011;16357;52.188;7.838;2022-08-19T02:45:52;10.77;;;6.55;;
29370;SDS011;16357;52.188;7.838;2022-08-19T02:48:20;9.35;;;6.70;;
29370;SDS011;16357;52.188;7.838;2022-08-19T02:50:49;9.45;;;7.07;;
29370;SDS011;16357;52.188;7.838;2022-08-19T02:53:22;9.88;;;6.97;;
29370;SDS011;16357;52.188;7.838;2022-08-19T02:55:50;8.63;;;6.65;;
29370;SDS011;16357;52.188;7.838;2022-08-19T02:58:18;8.52;;;7.30;;
29370;SDS011;16357;52.188;7.838;2022-08-19T03:00:47;9.70;;;6.95;;
29370;SDS011;16357;52.188;7.838;2022-08-19T03:03:15;9.52;;;7.40;;
29370;SDS011;16357;52.188;7.838;2022-08-19T03:05:43;10.10;;;7.72;;
29370;SDS011;16357;52.188;7.838;2022-08-19T03:08:21;10.73;;;7.72;;
29370;SDS011;16357;52.188;7.838;2022-08-19T03:10:47;9.93;;;6.97;;
29370;SDS011;16357;52.188;7.838;2022-08-19T03:13:15;7.88;;;6.72;;
29370;SDS011;16357;52.188;7.838;2022-08-19T03:15:45;12.02;;;7.20;;
29370;SDS011;16357;52.188;7.838;2022-08-19T03:18:13;10.25;;;6.85;;
29370;SDS011;16357;52.188;7.838;2022-08-19T03:20:58;9.30;;;7.03;;
29370;SDS011;16357;52.188;7.838;2022-08-19T03:23:25;8.30;;;6.88;;
29370;SDS011;16357;52.188;7.838;2022-08-19T03:25:52;8.90;;;7.28;;
29370;SDS011;16357;52.188;7.838;2022-08-19T03:28:40;10.43;;;7.18;;
29370;SDS011;16357;52.188;7.838;2022-08-19T03:31:15;8.30;;;6.93;;
29370;SDS011;16357;52.188;7.838;2022-08-19T03:34:03;7.93;;;6.82;;
29370;SDS011;16357;52.188;7.838;2022-08-19T03:36:33;8.07;;;7.20;;
29370;SDS011;16357;52.188;7.838;2022-08-19T03:39:00;11.13;;;7.78;;
29370;SDS011;16357;52.188;7.838;2022-08-19T03:41:29;9.20;;;7.68;;
29370;SDS011;16357;52.188;7.838;2022-08-19T03:44:10;10.82;;;7.75;;
29370;SDS011;16357;52.188;7.838;2022-08-19T03:46:44;13.02;;;7.47;;
29370;SDS011;16357;52.188;7.838;2022-08-19T03:49:11;9.95;;;8.30;;
29370;SDS011;16357;52.188;7.838;2022-08-19T03:51:40;10.52;;;8.55;;
29370;SDS011;16357;52.188;7.838;2022-08-19T03:54:09;11.02;;;8.98;;
29370;SDS011;16357;52.188;7.838;2022-08-19T03:56:38;10.52;;;8.13;;
29370;SDS011;16357;52.188;7.838;2022-08-19T03:59:06;11.25;;;8.40;;
29370;SDS011;16357;52.188;7.838;2022-08-19T04:01:34;11.55;;;8.55;;
29370;SDS011;16357;52.188;7.838;2022-08-19T04:04:01;11.73;;;8.88;;
29370;SDS011;16357;52.188;7.838;2022-08-19T04:06:31;11.25;;;9.18;;
29370;SDS011;16357;52.188;7.838;2022-08-19T04:09:00;11.48;;;8.98;;
29370;SDS011;16357;52.188;7.838;2022-08-19T04:11:31;11.98;;;9.15;;
29370;SDS011;16357;52.188;7.838;2022-08-19T04:14:10;12.27;;;9.07;;
29370;SDS011;16357;52.188;7.838;2022-08-19T04:16:38;13.13;;;8.85;;
29370;SDS011;16357;52.188;7.838;2022-08-19T04:19:05;12.52;;;9.10;;
29370;SDS011;16357;52.188;7.838;2022-08-19T04:21:33;14.35;;;9.45;;
29370;SDS011;16357;52.188;7.838;2022-08-19T04:24:00;9.60;;;8.48;;
29370;SDS011;16357;52.188;7.838;2022-08-19T04:26:30;9.82;;;8.63;;
29370;SDS011;16357;52.188;7.838;2022-08-19T04:29:05;13.38;;;9.02;;
29370;SDS011;16357;52.188;7.838;2022-08-19T04:31:38;11.02;;;8.13;;
29370;SDS011;16357;52.188;7.838;2022-08-19T04:34:06;11.63;;;8.10;;
29370;SDS011;16357;52.188;7.838;2022-08-19T04:36:35;12.90;;;8.77;;
29370;SDS011;16357;52.188;7.838;2022-08-19T04:39:04;9.77;;;8.38;;
29370;SDS011;16357;52.188;7.838;2022-08-19T04:41:33;11.10;;;9.27;;
29370;SDS011;16357;52.188;7.838;2022-08-19T04:44:19;14.85;;;9.27;;
29370;SDS011;16357;52.188;7.838;2022-08-19T04:46:48;12.02;;;8.77;;
29370;SDS011;16357;52.188;7.838;2022-08-19T04:49:18;12.10;;;8.73;;
29370;SDS011;16357;52.188;7.838;2022-08-19T04:51:48;10.90;;;8.68;;
29370;SDS011;16357;52.188;7.838;2022-08-19T04:54:17;13.45;;;8.95;;
29370;SDS011;16357;52.188;7.838;2022-08-19T04:57:03;12.00;;;8.68;;
29370;SDS011;16357;52.188;7.838;2022-08-19T04:59:32;13.57;;;9.10;;
29370;SDS011;16357;52.188;7.838;2022-08-19T05:01:59;10.05;;;8.55;;
29370;SDS011;16357;52.188;7.838;2022-08-19T05:04:26;11.32;;;8.85;;
29370;SDS011;16357;52.188;7.838;2022-08-19T05:06:54;12.70;;;9.90;;
29370;SDS011;16357;52.188;7.838;2022-08-19T05:09:26;11.38;;;9.05;;
29370;SDS011;16357;52.188;7.838;2022-08-19T05:12:14;12.55;;;9.18;;
29370;SDS011;16357;52.188;7.838;2022-08-19T05:14:41;12.35;;;8.95;;
29370;SDS011;16357;52.188;7.838;2022-08-19T05:17:08;14.15;;;9.45;;
29370;SDS011;16357;52.188;7.838;2022-08-19T05:19:52;12.52;;;9.18;;
29370;SDS011;16357;52.188;7.838;2022-08-19T05:22:37;14.10;;;9.23;;
29370;SDS011;16357;52.188;7.838;2022-08-19T05:25:06;11.60;;;8.75;;
29370;SDS011;16357;52.188;7.838;2022-08-19T05:27:38;12.02;;;9.43;;
29370;SDS011;16357;52.188;7.838;2022-08-19T05:30:05;11.40;;;9.63;;
29370;SDS011;16357;52.188;7.838;2022-08-19T05:32:32;13.40;;;9.60;;
29370;SDS011;16357;52.188;7.838;2022-08-19T05:34:59;13.90;;;8.98;;
29370;SDS011;16357;52.188;7.838;2022-08-19T05:37:25;15.32;;;10.38;;
29370;SDS011;16357;52.188;7.838;2022-08-19T05:39:53;12.52;;;9.80;;
29370;SDS011;16357;52.188;7.838;2022-08-19T05:42:20;11.38;;;9.85;;
29370;SDS011;16357;52.188;7.838;2022-08-19T05:44:49;11.73;;;9.85;;
29370;SDS011;16357;52.188;7.838;2022-08-19T05:47:16;12.95;;;10.32;;
29370;SDS011;16357;52.188;7.838;2022-08-19T05:49:44;12.48;;;10.20;;
29370;SDS011;16357;52.188;7.838;2022-08-19T05:52:12;12.57;;;10.32;;
29370;SDS011;16357;52.188;7.838;2022-08-19T05:54:43;13.73;;;10.63;;
29370;SDS011;16357;52.188;7.838;2022-08-19T05:57:16;11.98;;;8.95;;
29370;SDS011;16357;52.188;7.838;2022-08-19T05:59:46;13.48;;;9.70;;
29370;SDS011;16357;52.188;7.838;2022-08-19T06:02:18;11.07;;;9.02;;
29370;SDS011;16357;52.188;7.838;2022-08-19T06:04:45;14.55;;;9.18;;
29370;SDS011;16357;52.188;7.838;2022-08-19T06:07:11;13.02;;;10.35;;
29370;SDS011;16357;52.188;7.838;2022-08-19T06:09:39;12.32;;;10.93;;
29370;SDS011;16357;52.188;7.838;2022-08-19T06:12:08;13.07;;;9.52;;
29370;SDS011;16357;52.188;7.838;2022-08-19T06:14:35;15.80;;;11.70;;
29370;SDS011;16357;52.188;7.838;2022-08-19T06:17:07;17.05;;;11.15;;
29370;SDS011;16357;52.188;7.838;2022-08-19T06:19:34;14.40;;;10.82;;
29370;SDS011;16357;52.188;7.838;2022-08-19T06:22:06;13.93;;;10.85;;
29370;SDS011;16357;52.188;7.838;2022-08-19T06:24:33;12.25;;;10.35;;
29370;SDS011;16357;52.188;7.838;2022-08-19T06:27:01;15.38;;;11.70;;
29370;SDS011;16357;52.188;7.838;2022-08-19T06:29:29;12.05;;;10.45;;
29370;SDS011;16357;52.188;7.838;2022-08-19T06:31:57;13.15;;;10.60;;
29370;SDS011;16357;52.188;7.838;2022-08-19T06:34:26;11.95;;;9.27;;
29370;SDS011;16357;52.188;7.838;2022-08-19T06:36:54;16.40;;;10.32;;
29370;SDS011;16357;52.188;7.838;2022-08-19T06:39:25;14.93;;;9.52;;
29370;SDS011;16357;52.188;7.838;2022-08-19T06:41:56;12.95;;;9.05;;
29370;SDS011;16357;52.188;7.838;2022-08-19T06:44:37;11.20;;;9.63;;
29370;SDS011;16357;52.188;7.838;2022-08-19T06:47:09;12.52;;;9.63;;
29370;SDS011;16357;52.188;7.838;2022-08-19T06:49:48;10.32;;;9.23;;
29370;SDS011;16357;52.188;7.838;2022-08-19T06:52:16;13.63;;;10.05;;
29370;SDS011;16357;52.188;7.838;2022-08-19T06:54:42;10.77;;;8.95;;
29370;SDS011;16357;52.188;7.838;2022-08-19T06:57:22;12.60;;;8.70;;
29370;SDS011;16357;52.188;7.838;2022-08-19T06:59:49;14.35;;;9.50;;
29370;SDS011;16357;52.188;7.838;2022-08-19T07:02:16;12.30;;;8.73;;
29370;SDS011;16357;52.188;7.838;2022-08-19T07:04:43;12.65;;;8.20;;
29370;SDS011;16357;52.188;7.838;2022-08-19T07:07:10;12.63;;;8.00;;
29370;SDS011;16357;52.188;7.838;2022-08-19T07:09:47;11.10;;;7.75;;
29370;SDS011;16357;52.188;7.838;2022-08-19T07:12:25;7.57;;;6.60;;
29370;SDS011;16357;52.188;7.838;2022-08-19T07:14:58;9.05;;;7.18;;
29370;SDS011;16357;52.188;7.838;2022-08-19T07:17:27;9.80;;;6.90;;
29370;SDS011;16357;52.188;7.838;2022-08-19T07:19:54;10.35;;;7.28;;
29370;SDS011;16357;52.188;7.838;2022-08-19T07:22:21;10.90;;;7.18;;
29370;SDS011;16357;52.188;7.838;2022-08-19T07:24:51;9.50;;;6.90;;
29370;SDS011;16357;52.188;7.838;2022-08-19T07:27:18;12.38;;;7.20;;
29370;SDS011;16357;52.188;7.838;2022-08-19T07:29:49;9.13;;;6.15;;
29370;SDS011;16357;52.188;7.838;2022-08-19T07:32:22;9.02;;;6.07;;
29370;SDS011;16357;52.188;7.838;2022-08-19T07:34:55;8.07;;;6.13;;
29370;SDS011;16357;52.188;7.838;2022-08-19T07:37:23;8.82;;;5.63;;
29370;SDS011;16357;52.188;7.838;2022-08-19T07:39:58;7.03;;;5.63;;
29370;SDS011;16357;52.188;7.838;2022-08-19T07:42:25;7.65;;;5.65;;
29370;SDS011;16357;52.188;7.838;2022-08-19T07:44:51;7.60;;;6.05;;
29370;SDS011;16357;52.188;7.838;2022-08-19T07:47:18;7.65;;;5.70;;
29370;SDS011;16357;52.188;7.838;2022-08-19T07:50:06;7.28;;;5.53;;
29370;SDS011;16357;52.188;7.838;2022-08-19T07:52:36;7.82;;;5.28;;
29370;SDS011;16357;52.188;7.838;2022-08-19T07:55:05;9.07;;;5.63;;
29370;SDS011;16357;52.188;7.838;2022-08-19T07:57:53;8.32;;;5.78;;
29370;SDS011;16357;52.188;7.838;2022-08-19T08:00:19;6.97;;;5.53;;
29370;SDS011;16357;52.188;7.838;2022-08-19T08:02:49;9.23;;;6.32;;
29370;SDS011;16357;52.188;7.838;2022-08-19T08:05:16;8.93;;;4.93;;
29370;SDS011;16357;52.188;7.838;2022-08-19T08:08:05;6.70;;;5.40;;
29370;SDS011;16357;52.188;7.838;2022-08-19T08:11:14;6.00;;;4.60;;
29370;SDS011;16357;52.188;7.838;2022-08-19T08:13:45;6.68;;;5.32;;
29370;SDS011;16357;52.188;7.838;2022-08-19T08:16:26;9.02;;;5.03;;
29370;SDS011;16357;52.188;7.838;2022-08-19T08:18:56;8.25;;;5.60;;
29370;SDS011;16357;52.188;7.838;2022-08-19T08:21:23;11.73;;;5.60;;
29370;SDS011;16357;52.188;7.838;2022-08-19T08:23:50;6.15;;;5.32;;
29370;SDS011;16357;52.188;7.838;2022-08-19T08:26:21;6.13;;;4.55;;
29370;SDS011;16357;52.188;7.838;2022-08-19T08:28:48;7.47;;;4.25;;
29370;SDS011;16357;52.188;7.838;2022-08-19T08:31:15;5.32;;;4.13;;
29370;SDS011;16357;52.188;7.838;2022-08-19T08:33:41;5.00;;;4.10;;
29370;SDS011;16357;52.188;7.838;2022-08-19T08:36:08;10.07;;;5.35;;
29370;SDS011;16357;52.188;7.838;2022-08-19T08:38:35;6.65;;;4.32;;
29370;SDS011;16357;52.188;7.838;2022-08-19T08:41:24;5.47;;;4.57;;
29370;SDS011;16357;52.188;7.838;2022-08-19T08:44:01;8.10;;;4.63;;
29370;SDS011;16357;52.188;7.838;2022-08-19T08:46:34;5.22;;;4.15;;
29370;SDS011;16357;52.188;7.838;2022-08-19T08:54:58;3.78;;;3.38;;
29370;SDS011;16357;52.188;7.838;2022-08-19T08:57:37;4.53;;;3.75;;
29370;SDS011;16357;52.188;7.838;2022-08-19T09:00:24;5.28;;;3.85;;
29370;SDS011;16357;52.188;7.838;2022-08-19T09:02:51;4.55;;;3.10;;
29370;SDS011;16357;52.188;7.838;2022-08-19T09:05:20;5.78;;;3.83;;
29370;SDS011;16357;52.188;7.838;2022-08-19T09:10:49;5.60;;;3.83;;
29370;SDS011;16357;52.188;7.838;2022-08-19T09:15:50;3.90;;;2.67;;
29370;SDS011;16357;52.188;7.838;2022-08-19T09:18:22;4.18;;;3.30;;
29370;SDS011;16357;52.188;7.838;2022-08-19T09:20:49;3.90;;;3.08;;
29370;SDS011;16357;52.188;7.838;2022-08-19T09:23:16;4.18;;;3.33;;
29370;SDS011;16357;52.188;7.838;2022-08-19T09:25:42;4.75;;;3.45;;
29370;SDS011;16357;52.188;7.838;2022-08-19T09:28:09;6.40;;;3.47;;
29370;SDS011;16357;52.188;7.838;2022-08-19T09:30:52;3.63;;;3.28;;
29370;SDS011;16357;52.188;7.838;2022-08-19T09:33:21;5.38;;;2.75;;
29370;SDS011;16357;52.188;7.838;2022-08-19T09:36:02;3.83;;;2.88;;
29370;SDS011;16357;52.188;7.838;2022-08-19T09:39:00;6.68;;;3.15;;
29370;SDS011;16357;52.188;7.838;2022-08-19T09:41:57;22.20;;;4.50;;
29370;SDS011;16357;52.188;7.838;2022-08-19T09:44:45;4.10;;;2.22;;
29370;SDS011;16357;52.188;7.838;2022-08-19T09:47:36;3.05;;;2.10;;
29370;SDS011;16357;52.188;7.838;2022-08-19T09:50:06;3.20;;;2.22;;
29370;SDS011;16357;52.188;7.838;2022-08-19T09:52:35;2.92;;;2.08;;
29370;SDS011;16357;52.188;7.838;2022-08-19T09:55:04;2.95;;;2.05;;
29370;SDS011;16357;52.188;7.838;2022-08-19T09:57:35;3.88;;;2.58;;
29370;SDS011;16357;52.188;7.838;2022-08-19T10:00:03;2.80;;;2.45;;
29370;SDS011;16357;52.188;7.838;2022-08-19T10:02:31;7.43;;;2.10;;
29370;SDS011;16357;52.188;7.838;2022-08-19T10:04:59;2.20;;;1.98;;
29370;SDS011;16357;52.188;7.838;2022-08-19T10:07:52;2.67;;;2.08;;
29370;SDS011;16357;52.188;7.838;2022-08-19T10:10:21;3.97;;;2.30;;
29370;SDS011;16357;52.188;7.838;2022-08-19T10:12:49;2.72;;;2.08;;
29370;SDS011;16357;52.188;7.838;2022-08-19T10:15:16;5.13;;;2.10;;
29370;SDS011;16357;52.188;7.838;2022-08-19T10:17:54;3.88;;;2.20;;
29370;SDS011;16357;52.188;7.838;2022-08-19T10:20:21;2.47;;;2.00;;
29370;SDS011;16357;52.188;7.838;2022-08-19T10:22:49;3.30;;;2.08;;
29370;SDS011;16357;52.188;7.838;2022-08-19T10:25:18;2.78;;;1.73;;
29370;SDS011;16357;52.188;7.838;2022-08-19T10:27:45;2.72;;;1.90;;
29370;SDS011;16357;52.188;7.838;2022-08-19T10:30:16;2.88;;;1.50;;
29370;SDS011;16357;52.188;7.838;2022-08-19T10:32:45;1.77;;;1.60;;
29370;SDS011;16357;52.188;7.838;2022-08-19T10:35:12;2.92;;;1.73;;
29370;SDS011;16357;52.188;7.838;2022-08-19T10:37:47;3.63;;;1.90;;
29370;SDS011;16357;52.188;7.838;2022-08-19T10:40:27;3.72;;;1.95;;
29370;SDS011;16357;52.188;7.838;2022-08-19T10:42:55;2.72;;;1.70;;
29370;SDS011;16357;52.188;7.838;2022-08-19T10:45:22;1.63;;;1.52;;
29370;SDS011;16357;52.188;7.838;2022-08-19T10:47:53;2.83;;;1.92;;
29370;SDS011;16357;52.188;7.838;2022-08-19T10:50:20;2.72;;;1.70;;
29370;SDS011;16357;52.188;7.838;2022-08-19T10:53:07;2.10;;;1.90;;
29370;SDS011;16357;52.188;7.838;2022-08-19T10:55:37;5.45;;;1.90;;
29370;SDS011;16357;52.188;7.838;2022-08-19T10:58:22;4.07;;;2.03;;
29370;SDS011;16357;52.188;7.838;2022-08-19T11:00:53;2.25;;;1.90;;
29370;SDS011;16357;52.188;7.838;2022-08-19T11:03:24;2.55;;;1.95;;
29370;SDS011;16357;52.188;7.838;2022-08-19T11:06:05;2.33;;;1.75;;
29370;SDS011;16357;52.188;7.838;2022-08-19T11:08:34;2.90;;;2.00;;
29370;SDS011;16357;52.188;7.838;2022-08-19T11:11:04;2.13;;;1.80;;
29370;SDS011;16357;52.188;7.838;2022-08-19T11:13:32;2.10;;;1.60;;
29370;SDS011;16357;52.188;7.838;2022-08-19T11:16:05;2.17;;;1.73;;
29370;SDS011;16357;52.188;7.838;2022-08-19T11:18:38;3.53;;;1.70;;
29370;SDS011;16357;52.188;7.838;2022-08-19T11:21:07;2.03;;;1.65;;
29370;SDS011;16357;52.188;7.838;2022-08-19T11:23:38;1.80;;;1.60;;
29370;SDS011;16357;52.188;7.838;2022-08-19T11:26:05;2.85;;;1.80;;
29370;SDS011;16357;52.188;7.838;2022-08-19T11:28:32;3.60;;;1.88;;
29370;SDS011;16357;52.188;7.838;2022-08-19T11:30:59;3.03;;;2.05;;
29370;SDS011;16357;52.188;7.838;2022-08-19T11:33:25;2.03;;;1.83;;
29370;SDS011;16357;52.188;7.838;2022-08-19T11:35:52;2.50;;;1.75;;
29370;SDS011;16357;52.188;7.838;2022-08-19T11:38:20;2.17;;;1.88;;
29370;SDS011;16357;52.188;7.838;2022-08-19T11:40:53;3.28;;;1.98;;
29370;SDS011;16357;52.188;7.838;2022-08-19T11:43:21;1.77;;;1.58;;
29370;SDS011;16357;52.188;7.838;2022-08-19T11:45:48;2.13;;;1.60;;
29370;SDS011;16357;52.188;7.838;2022-08-19T11:48:14;2.60;;;1.67;;
29370;SDS011;16357;52.188;7.838;2022-08-19T11:50:41;2.03;;;1.83;;
29370;SDS011;16357;52.188;7.838;2022-08-19T11:53:08;1.77;;;1.67;;
29370;SDS011;16357;52.188;7.838;2022-08-19T11:55:37;2.03;;;1.75;;
29370;SDS011;16357;52.188;7.838;2022-08-19T11:58:09;2.00;;;1.80;;
29370;SDS011;16357;52.188;7.838;2022-08-19T12:00:44;2.72;;;2.10;;
29370;SDS011;16357;52.188;7.838;2022-08-19T12:03:11;2.70;;;1.80;;
29370;SDS011;16357;52.188;7.838;2022-08-19T12:05:41;3.00;;;1.92;;
29370;SDS011;16357;52.188;7.838;2022-08-19T12:08:08;1.95;;;1.75;;
29370;SDS011;16357;52.188;7.838;2022-08-19T12:10:35;2.65;;;2.15;;
29370;SDS011;16357;52.188;7.838;2022-08-19T12:13:01;2.42;;;2.10;;
29370;SDS011;16357;52.188;7.838;2022-08-19T12:15:28;2.10;;;1.90;;
29370;SDS011;16357;52.188;7.838;2022-08-19T12:18:02;2.20;;;1.80;;
29370;SDS011;16357;52.188;7.838;2022-08-19T12:20:30;3.80;;;2.00;;
29370;SDS011;16357;52.188;7.838;2022-08-19T12:23:00;2.15;;;1.95;;
29370;SDS011;16357;52.188;7.838;2022-08-19T12:25:27;1.92;;;1.73;;
29370;SDS011;16357;52.188;7.838;2022-08-19T12:27:53;1.83;;;1.70;;
29370;SDS011;16357;52.188;7.838;2022-08-19T12:30:22;1.85;;;1.70;;
29370;SDS011;16357;52.188;7.838;2022-08-19T12:32:49;2.00;;;1.80;;
29370;SDS011;16357;52.188;7.838;2022-08-19T12:35:17;2.33;;;1.80;;
29370;SDS011;16357;52.188;7.838;2022-08-19T12:37:47;2.25;;;1.98;;
29370;SDS011;16357;52.188;7.838;2022-08-19T12:40:22;1.90;;;1.70;;
29370;SDS011;16357;52.188;7.838;2022-08-19T12:42:51;2.65;;;1.80;;
29370;SDS011;16357;52.188;7.838;2022-08-19T12:45:18;2.22;;;1.70;;
29370;SDS011;16357;52.188;7.838;2022-08-19T12:47:45;2.17;;;1.80;;
29370;SDS011;16357;52.188;7.838;2022-08-19T12:50:12;2.35;;;1.65;;
29370;SDS011;16357;52.188;7.838;2022-08-19T12:52:39;2.10;;;1.90;;
29370;SDS011;16357;52.188;7.838;2022-08-19T12:55:08;3.20;;;1.70;;
29370;SDS011;16357;52.188;7.838;2022-08-19T12:57:36;2.08;;;1.88;;
29370;SDS011;16357;52.188;7.838;2022-08-19T13:00:08;1.95;;;1.73;;
29370;SDS011;16357;52.188;7.838;2022-08-19T13:02:43;2.28;;;2.03;;
29370;SDS011;16357;52.188;7.838;2022-08-19T13:05:15;4.15;;;2.40;;
29370;SDS011;16357;52.188;7.838;2022-08-19T13:07:46;4.28;;;2.40;;
29370;SDS011;16357;52.188;7.838;2022-08-19T13:10:14;5.03;;;2.40;;
29370;SDS011;16357;52.188;7.838;2022-08-19T13:12:42;2.58;;;2.38;;
29370;SDS011;16357;52.188;7.838;2022-08-19T13:15:11;2.53;;;2.30;;
29370;SDS011;16357;52.188;7.838;2022-08-19T13:17:40;3.13;;;2.60;;
29370;SDS011;16357;52.188;7.838;2022-08-19T13:20:07;2.85;;;2.53;;
29370;SDS011;16357;52.188;7.838;2022-08-19T13:22:35;3.20;;;2.30;;
29370;SDS011;16357;52.188;7.838;2022-08-19T13:25:02;3.92;;;2.90;;
29370;SDS011;16357;52.188;7.838;2022-08-19T13:27:31;4.13;;;2.25;;
29370;SDS011;16357;52.188;7.838;2022-08-19T13:29:58;2.55;;;2.25;;
29370;SDS011;16357;52.188;7.838;2022-08-19T13:32:43;3.67;;;2.85;;
29370;SDS011;16357;52.188;7.838;2022-08-19T13:35:28;2.22;;;2.03;;
29370;SDS011;16357;52.188;7.838;2022-08-19T13:37:55;3.28;;;2.30;;
29370;SDS011;16357;52.188;7.838;2022-08-19T13:40:22;2.60;;;2.40;;
29370;SDS011;16357;52.188;7.838;2022-08-19T13:42:50;2.42;;;2.10;;
29370;SDS011;16357;52.188;7.838;2022-08-19T13:45:20;3.15;;;2.35;;
29370;SDS011;16357;52.188;7.838;2022-08-19T13:47:49;2.80;;;2.55;;
29370;SDS011;16357;52.188;7.838;2022-08-19T13:50:25;3.15;;;2.20;;
29370;SDS011;16357;52.188;7.838;2022-08-19T13:52:54;2.35;;;2.13;;
29370;SDS011;16357;52.188;7.838;2022-08-19T13:55:22;2.60;;;2.40;;
29370;SDS011;16357;52.188;7.838;2022-08-19T13:57:54;3.67;;;2.10;;
29370;SDS011;16357;52.188;7.838;2022-08-19T14:00:23;3.45;;;2.30;;
29370;SDS011;16357;52.188;7.838;2022-08-19T14:02:53;2.30;;;2.10;;
29370;SDS011;16357;52.188;7.838;2022-08-19T14:05:22;2.80;;;2.35;;
29370;SDS011;16357;52.188;7.838;2022-08-19T14:07:49;2.55;;;2.13;;
29370;SDS011;16357;52.188;7.838;2022-08-19T14:10:16;4.53;;;2.10;;
29370;SDS011;16357;52.188;7.838;2022-08-19T14:12:44;2.45;;;1.83;;
29370;SDS011;16357;52.188;7.838;2022-08-19T14:15:12;2.38;;;2.10;;
29370;SDS011;16357;52.188;7.838;2022-08-19T14:17:41;3.95;;;1.92;;
29370;SDS011;16357;52.188;7.838;2022-08-19T14:20:09;4.50;;;2.33;;
29370;SDS011;16357;52.188;7.838;2022-08-19T14:22:43;2.90;;;1.90;;
29370;SDS011;16357;52.188;7.838;2022-08-19T14:25:13;2.17;;;1.98;;
29370;SDS011;16357;52.188;7.838;2022-08-19T14:27:44;3.25;;;2.30;;
29370;SDS011;16357;52.188;7.838;2022-08-19T14:30:12;2.53;;;2.30;;
29370;SDS011;16357;52.188;7.838;2022-08-19T14:32:42;3.88;;;2.97;;
29370;SDS011;16357;52.188;7.838;2022-08-19T14:35:12;2.80;;;2.60;;
29370;SDS011;16357;52.188;7.838;2022-08-19T14:37:41;3.92;;;2.65;;
29370;SDS011;16357;52.188;7.838;2022-08-19T14:40:12;5.32;;;2.80;;
29370;SDS011;16357;52.188;7.838;2022-08-19T14:42:40;4.00;;;3.10;;
29370;SDS011;16357;52.188;7.838;2022-08-19T14:45:08;3.05;;;2.70;;
29370;SDS011;16357;52.188;7.838;2022-08-19T14:47:36;4.63;;;2.72;;
29370;SDS011;16357;52.188;7.838;2022-08-19T14:50:06;3.40;;;2.78;;
29370;SDS011;16357;52.188;7.838;2022-08-19T14:52:43;3.20;;;2.60;;
29370;SDS011;16357;52.188;7.838;2022-08-19T14:55:17;3.55;;;2.78;;
29370;SDS011;16357;52.188;7.838;2022-08-19T14:57:44;3.00;;;2.70;;
29370;SDS011;16357;52.188;7.838;2022-08-19T15:00:11;3.53;;;3.22;;
29370;SDS011;16357;52.188;7.838;2022-08-19T15:02:39;3.28;;;2.75;;
29370;SDS011;16357;52.188;7.838;2022-08-19T15:05:07;3.47;;;2.70;;
29370;SDS011;16357;52.188;7.838;2022-08-19T15:07:34;4.43;;;3.22;;
29370;SDS011;16357;52.188;7.838;2022-08-19T15:10:01;3.08;;;2.78;;
29370;SDS011;16357;52.188;7.838;2022-08-19T15:12:28;4.25;;;2.90;;
29370;SDS011;16357;52.188;7.838;2022-08-19T15:14:54;4.35;;;3.22;;